Time;durP1;ratioP1;P1;durP2;ratioP2;P2;SDS_P1;SDS_P2;PMS_P1;PMS_P2;Temp;Humidity;BMP_temperature;BMP_pressure;BME280_temperature;BME280_humidity;BME280_pressure;Samples;Min_cycle;Max_cycle;Signal;HPM_P1;HPM_P2
2023/07/03 00:01:08;;;;;;;;;;;23.10;99.90;;;;;;4590766;19;19930;-25
2023/07/03 00:02:55;;;;;;;;;;;23.10;99.90;;;;;;4591597;19;19925;-25
2023/07/03 00:04:27;;;;;;;;;;;23.20;99.90;;;;;;4591977;19;19940;-27
2023/07/03 00:05:58;;;;;;;;;;;23.10;99.90;;;;;;4591267;19;20248;-25
2023/07/03 00:07:29;;;;;;;;;;;23.10;99.90;;;;;;4591598;19;19918;-27
2023/07/03 00:09:01;;;;;;;;;;;23.10;99.90;;;;;;4591976;19;19974;-25
2023/07/03 00:10:33;;;;;;;;;;;23.10;99.90;;;;;;4589794;19;19923;-25
2023/07/03 00:12:05;;;;;;;;;;;23.10;99.90;;;;;;4591406;19;19946;-25
2023/07/03 00:13:36;;;;;;;;;;;23.10;99.90;;;;;;4590455;19;19956;-25
2023/07/03 00:15:07;;;;;;;;;;;23.10;99.90;;;;;;4592068;19;20336;-29
2023/07/03 00:16:38;;;;;;;;;;;23.10;99.90;;;;;;4591636;19;19983;-25
2023/07/03 00:18:10;;;;;;;;;;;23.10;99.90;;;;;;4592068;19;20256;-27
2023/07/03 00:19:41;;;;;;;;;;;23.10;99.90;;;;;;4591570;19;19918;-25
2023/07/03 00:21:14;;;;;;;;;;;23.10;99.90;;;;;;4589854;19;19923;-25
2023/07/03 00:22:48;;;;;;;;;;;23.10;99.90;;;;;;4591035;19;19910;-25
2023/07/03 00:24:19;;;;;;;;;;;23.10;99.90;;;;;;4591069;19;19918;-28
2023/07/03 00:25:50;;;;;;;;;;;23.10;99.90;;;;;;4589293;19;19926;-28
2023/07/03 00:27:22;;;;;;;;;;;23.10;99.90;;;;;;4591141;19;19948;-25
2023/07/03 00:28:53;;;;;;;;;;;23.10;99.90;;;;;;4592055;19;19929;-25
2023/07/03 00:30:24;;;;;;;;;;;23.10;99.90;;;;;;4591526;19;19922;-25
2023/07/03 00:31:55;;;;;;;;;;;23.10;99.90;;;;;;4590682;19;19918;-30
2023/07/03 00:33:26;;;;;;;;;;;23.10;99.90;;;;;;4590983;19;19955;-27
2023/07/03 00:34:58;;;;;;;;;;;23.10;99.90;;;;;;4590514;19;19921;-26
2023/07/03 00:36:29;;;;;;;;;;;23.10;99.90;;;;;;4591785;19;19925;-27
2023/07/03 00:37:59;;;;;;;;;;;23.10;99.90;;;;;;4589690;19;19986;-24
2023/07/03 00:39:31;;;;;;;;;;;23.00;99.90;;;;;;4590355;19;20253;-30
2023/07/03 00:41:02;;;;;;;;;;;23.00;99.90;;;;;;4589602;19;19964;-25
2023/07/03 00:42:33;;;;;;;;;;;23.10;99.90;;;;;;4590931;19;19919;-25
2023/07/03 00:44:06;;;;;;;;;;;23.10;99.90;;;;;;4590832;19;20359;-25
2023/07/03 00:45:37;;;;;;;;;;;23.00;99.90;;;;;;4589778;19;19915;-31
2023/07/03 00:47:09;;;;;;;;;;;23.00;99.90;;;;;;4590938;19;19926;-25
2023/07/03 00:48:40;;;;;;;;;;;23.10;99.90;;;;;;4589310;19;20247;-25
2023/07/03 00:50:11;;;;;;;;;;;23.00;99.90;;;;;;4590385;19;19914;-25
2023/07/03 00:51:44;;;;;;;;;;;23.00;99.90;;;;;;4590426;19;19926;-29
2023/07/03 00:53:16;;;;;;;;;;;23.00;99.90;;;;;;4588102;19;19923;-24
2023/07/03 00:54:47;;;;;;;;;;;23.00;99.90;;;;;;4590884;19;19927;-25
2023/07/03 00:56:18;;;;;;;;;;;23.00;99.90;;;;;;4590153;19;19933;-28
2023/07/03 00:57:49;;;;;;;;;;;23.00;99.90;;;;;;4589669;19;19914;-29
2023/07/03 00:59:20;;;;;;;;;;;23.00;99.90;;;;;;4589061;19;19918;-25
2023/07/03 01:00:53;;;;;;;;;;;23.10;99.90;;;;;;4588547;19;20281;-25
2023/07/03 01:02:27;;;;;;;;;;;23.00;99.90;;;;;;4590511;19;20301;-26
2023/07/03 01:04:03;;;;;;;;;;;23.00;99.90;;;;;;4589653;19;20281;-25
2023/07/03 01:05:39;;;;;;;;;;;23.00;99.90;;;;;;4588279;19;19918;-26
2023/07/03 01:07:13;;;;;;;;;;;23.00;99.90;;;;;;4590114;19;20002;-29
2023/07/03 01:08:44;;;;;;;;;;;23.00;99.90;;;;;;4590389;19;19926;-27
2023/07/03 01:10:18;;;;;;;;;;;23.00;99.90;;;;;;4591631;19;19994;-25
2023/07/03 01:11:49;;;;;;;;;;;23.00;99.90;;;;;;4589438;19;19926;-25
2023/07/03 01:13:20;;;;;;;;;;;23.00;99.90;;;;;;4590412;19;19915;-26
2023/07/03 01:14:51;;;;;;;;;;;23.00;99.90;;;;;;4590423;19;19966;-25
2023/07/03 01:16:22;;;;;;;;;;;23.00;99.90;;;;;;4588994;19;19926;-25
2023/07/03 01:17:55;;;;;;;;;;;23.00;99.90;;;;;;4590189;19;19930;-26
2023/07/03 01:19:31;;;;;;;;;;;23.00;99.90;;;;;;4589941;19;19988;-24
2023/07/03 01:21:09;;;;;;;;;;;23.00;99.90;;;;;;4589571;19;19919;-25
2023/07/03 01:22:48;;;;;;;;;;;23.00;99.90;;;;;;4589926;19;19935;-25
2023/07/03 01:24:29;;;;;;;;;;;22.90;99.90;;;;;;4589075;19;19922;-31
2023/07/03 01:26:01;;;;;;;;;;;23.00;99.90;;;;;;4587663;19;20340;-25
2023/07/03 01:27:32;;;;;;;;;;;23.00;99.90;;;;;;4590069;19;19998;-25
2023/07/03 01:29:03;;;;;;;;;;;23.00;99.90;;;;;;4589784;19;20321;-25
2023/07/03 01:30:34;;;;;;;;;;;22.90;99.90;;;;;;4590292;19;20485;-25
2023/07/03 01:32:06;;;;;;;;;;;22.90;99.90;;;;;;4589240;19;19922;-25
2023/07/03 01:33:40;;;;;;;;;;;22.90;99.90;;;;;;4588944;19;19945;-27
2023/07/03 01:35:11;;;;;;;;;;;22.90;99.90;;;;;;4590738;19;19945;-25
2023/07/03 01:36:42;;;;;;;;;;;23.00;99.90;;;;;;4588672;19;20380;-25
2023/07/03 01:38:14;;;;;;;;;;;22.90;99.90;;;;;;4589136;19;19915;-25
2023/07/03 01:39:45;;;;;;;;;;;23.00;99.90;;;;;;4588265;19;20343;-26
2023/07/03 01:41:16;;;;;;;;;;;22.90;99.90;;;;;;4590237;19;19978;-26
2023/07/03 01:42:47;;;;;;;;;;;22.90;99.90;;;;;;4590094;19;19918;-27
2023/07/03 01:44:19;;;;;;;;;;;22.90;99.90;;;;;;4589773;19;19923;-25
2023/07/03 01:45:49;;;;;;;;;;;22.90;99.90;;;;;;4591284;19;19942;-25
2023/07/03 01:47:20;;;;;;;;;;;22.90;99.90;;;;;;4589289;19;19978;-25
2023/07/03 01:48:52;;;;;;;;;;;22.90;99.90;;;;;;4589920;19;19957;-27
2023/07/03 01:50:27;;;;;;;;;;;22.90;99.90;;;;;;4587283;19;20261;-25
2023/07/03 01:52:01;;;;;;;;;;;22.90;99.90;;;;;;4589807;19;19927;-25
2023/07/03 01:53:45;;;;;;;;;;;22.90;99.90;;;;;;4588968;19;20350;-27
2023/07/03 01:55:19;;;;;;;;;;;22.90;99.90;;;;;;4589136;19;19922;-26
2023/07/03 01:56:52;;;;;;;;;;;22.90;99.90;;;;;;4589694;19;19918;-25
2023/07/03 01:58:32;;;;;;;;;;;22.90;99.90;;;;;;4587934;19;19923;-24
2023/07/03 02:00:04;;;;;;;;;;;22.90;99.90;;;;;;4590288;19;20264;-25
2023/07/03 02:01:53;;;;;;;;;;;22.90;99.90;;;;;;4587589;19;19918;-24
2023/07/03 02:03:25;;;;;;;;;;;22.90;99.90;;;;;;4588837;19;19919;-27
2023/07/03 02:05:07;;;;;;;;;;;22.90;99.90;;;;;;4591605;19;19948;-25
2023/07/03 02:06:38;;;;;;;;;;;22.90;99.90;;;;;;4594625;19;19930;-25
2023/07/03 02:08:10;;;;;;;;;;;22.90;99.90;;;;;;4593811;19;19993;-28
2023/07/03 02:09:41;;;;;;;;;;;23.00;99.90;;;;;;4593919;19;19919;-28
2023/07/03 02:11:13;;;;;;;;;;;22.90;99.90;;;;;;4595160;19;19956;-25
2023/07/03 02:12:45;;;;;;;;;;;22.90;99.90;;;;;;4593532;19;19927;-25
2023/07/03 02:14:16;;;;;;;;;;;22.90;99.90;;;;;;4594201;19;20258;-25
2023/07/03 02:15:47;;;;;;;;;;;22.90;99.90;;;;;;4594971;19;19915;-25
2023/07/03 02:17:18;;;;;;;;;;;22.90;99.90;;;;;;4593707;19;20260;-25
2023/07/03 02:18:50;;;;;;;;;;;22.90;99.90;;;;;;4594509;19;19923;-25
2023/07/03 02:20:22;;;;;;;;;;;22.90;99.90;;;;;;4594237;19;20400;-25
2023/07/03 02:21:53;;;;;;;;;;;22.90;99.90;;;;;;4594855;19;19935;-26
2023/07/03 02:23:24;;;;;;;;;;;22.90;99.90;;;;;;4594735;19;20320;-26
2023/07/03 02:24:55;;;;;;;;;;;22.90;99.90;;;;;;4593598;19;19925;-25
2023/07/03 02:26:27;;;;;;;;;;;22.90;99.90;;;;;;4593292;19;19927;-26
2023/07/03 02:27:58;;;;;;;;;;;22.90;99.90;;;;;;4594577;19;19921;-25
2023/07/03 02:29:28;;;;;;;;;;;22.90;99.90;;;;;;4592261;19;20002;-25
2023/07/03 02:31:00;;;;;;;;;;;22.90;99.90;;;;;;4592000;19;19926;-25
2023/07/03 02:32:34;;;;;;;;;;;22.90;99.90;;;;;;4592949;19;19923;-27
2023/07/03 02:34:07;;;;;;;;;;;22.90;99.90;;;;;;4594784;19;19926;-23
2023/07/03 02:35:41;;;;;;;;;;;22.90;99.90;;;;;;4593334;19;19928;-25
2023/07/03 02:37:13;;;;;;;;;;;22.90;99.90;;;;;;4592844;19;20329;-27
2023/07/03 02:38:44;;;;;;;;;;;22.90;99.90;;;;;;4594340;19;19940;-24
2023/07/03 02:40:16;;;;;;;;;;;22.80;99.90;;;;;;4593259;19;20363;-25
2023/07/03 02:41:47;;;;;;;;;;;22.90;99.90;;;;;;4591920;19;19931;-28
2023/07/03 02:43:18;;;;;;;;;;;22.90;99.90;;;;;;4592395;19;20284;-28
2023/07/03 02:44:49;;;;;;;;;;;22.90;99.90;;;;;;4593884;19;19925;-30
2023/07/03 02:46:20;;;;;;;;;;;22.90;99.90;;;;;;4592598;19;20269;-25
2023/07/03 02:47:52;;;;;;;;;;;22.90;99.90;;;;;;4592972;19;19932;-25
2023/07/03 02:49:26;;;;;;;;;;;22.80;99.90;;;;;;4592998;19;20329;-26
2023/07/03 02:50:57;;;;;;;;;;;22.80;99.90;;;;;;4590426;19;20277;-25
2023/07/03 02:52:28;;;;;;;;;;;22.80;99.90;;;;;;4593484;19;19911;-30
2023/07/03 02:54:04;;;;;;;;;;;22.80;99.90;;;;;;4594084;19;19945;-25
2023/07/03 02:55:35;;;;;;;;;;;22.80;99.90;;;;;;4593271;19;19919;-25
2023/07/03 02:57:07;;;;;;;;;;;22.80;99.90;;;;;;4591784;19;20248;-25
2023/07/03 02:58:38;;;;;;;;;;;22.80;99.90;;;;;;4591455;19;19915;-28
2023/07/03 03:00:11;;;;;;;;;;;22.80;99.90;;;;;;4593197;19;19922;-24
2023/07/03 03:01:42;;;;;;;;;;;22.90;99.90;;;;;;4591233;19;19911;-25
2023/07/03 03:03:16;;;;;;;;;;;22.90;99.90;;;;;;4593863;19;19933;-25
2023/07/03 03:04:47;;;;;;;;;;;22.90;99.90;;;;;;4593501;19;20360;-25
2023/07/03 03:06:18;;;;;;;;;;;22.80;99.90;;;;;;4592506;19;19929;-28
2023/07/03 03:07:49;;;;;;;;;;;22.80;99.90;;;;;;4593901;19;19945;-25
2023/07/03 03:09:20;;;;;;;;;;;22.80;99.90;;;;;;4590509;19;20333;-25
2023/07/03 03:10:51;;;;;;;;;;;22.90;99.90;;;;;;4593045;19;19937;-30
2023/07/03 03:12:23;;;;;;;;;;;22.90;99.90;;;;;;4593324;19;20009;-25
2023/07/03 03:13:55;;;;;;;;;;;22.80;99.90;;;;;;4593692;19;19917;-27
2023/07/03 03:15:26;;;;;;;;;;;22.80;99.90;;;;;;4592229;19;20230;-26
2023/07/03 03:16:58;;;;;;;;;;;22.80;99.90;;;;;;4590751;19;20034;-27
2023/07/03 03:18:29;;;;;;;;;;;22.80;99.90;;;;;;4593237;19;20352;-25
2023/07/03 03:20:00;;;;;;;;;;;22.80;99.90;;;;;;4591172;19;19919;-24
2023/07/03 03:21:31;;;;;;;;;;;22.80;99.90;;;;;;4591029;19;19941;-25
2023/07/03 03:23:02;;;;;;;;;;;22.80;99.90;;;;;;4592245;19;19930;-25
2023/07/03 03:24:34;;;;;;;;;;;22.80;99.90;;;;;;4592447;19;19924;-25
2023/07/03 03:26:06;;;;;;;;;;;22.80;99.90;;;;;;4591504;19;19929;-24
2023/07/03 03:27:37;;;;;;;;;;;22.80;99.90;;;;;;4592462;19;19930;-25
2023/07/03 03:29:08;;;;;;;;;;;22.80;99.90;;;;;;4591242;19;20372;-25
